Time;durP1;ratioP1;P1;durP2;ratioP2;P2;SDS_P1;SDS_P2;PMS_P1;PMS_P2;Temp;Humidity;BMP_temperature;BMP_pressure;BME280_temperature;BME280_humidity;BME280_pressure;Samples;Min_cycle;Max_cycle;Signal;HPM_P1;HPM_P2
2022/11/30 00:00:51;;;;;;;16.20;12.95;;;4.40;99.90;;;;;;5006068;28;20192;-73
2022/11/30 00:03:16;;;;;;;18.40;13.32;;;4.50;99.90;;;;;;4997848;28;20198;-73
2022/11/30 00:05:42;;;;;;;16.63;13.70;;;4.50;99.90;;;;;;5000812;28;20267;-74
2022/11/30 00:08:07;;;;;;;15.95;13.27;;;4.40;99.90;;;;;;4991850;28;20185;-73
2022/11/30 00:10:33;;;;;;;19.05;13.23;;;4.40;99.90;;;;;;4994544;28;20545;-73
2022/11/30 00:12:59;;;;;;;16.50;13.27;;;4.50;99.90;;;;;;4993503;28;20182;-73
2022/11/30 00:15:24;;;;;;;20.83;14.88;;;4.50;99.90;;;;;;4994784;28;20210;-73
2022/11/30 00:17:56;;;;;;;19.25;14.25;;;4.50;99.90;;;;;;5005542;28;20295;-73
2022/11/30 00:20:21;;;;;;;19.38;13.88;;;4.40;99.90;;;;;;4998154;28;20584;-74
2022/11/30 00:22:47;;;;;;;17.55;14.02;;;4.30;99.90;;;;;;4994178;28;20281;-73
2022/11/30 00:25:12;;;;;;;19.35;14.43;;;4.30;99.90;;;;;;4991903;28;20232;-74
2022/11/30 00:27:38;;;;;;;19.05;13.20;;;4.30;99.90;;;;;;4994057;28;20178;-75
2022/11/30 00:30:05;;;;;;;17.70;13.50;;;4.40;99.90;;;;;;4990649;28;20185;-74
2022/11/30 00:32:30;;;;;;;18.55;14.18;;;4.30;99.90;;;;;;4997917;28;20587;-74
2022/11/30 00:34:56;;;;;;;18.38;14.02;;;4.20;99.90;;;;;;4989665;28;20276;-73
2022/11/30 00:37:21;;;;;;;19.92;14.73;;;4.10;99.90;;;;;;4993598;28;20209;-75
2022/11/30 00:39:47;;;;;;;16.80;13.60;;;4.20;99.90;;;;;;4988968;28;20281;-73
2022/11/30 00:42:13;;;;;;;17.80;14.13;;;4.10;99.90;;;;;;4988517;28;20232;-74
2022/11/30 00:44:39;;;;;;;18.63;14.35;;;4.00;99.90;;;;;;4990664;28;20659;-74
2022/11/30 00:47:04;;;;;;;17.05;13.88;;;4.10;99.90;;;;;;4992795;28;20197;-75
2022/11/30 00:49:31;;;;;;;19.95;14.65;;;4.10;99.90;;;;;;4979441;28;20525;-74
2022/11/30 00:51:56;;;;;;;18.73;14.85;;;4.10;99.90;;;;;;4975590;28;20273;-75
2022/11/30 00:54:22;;;;;;;19.20;15.85;;;4.10;99.90;;;;;;4989296;28;20284;-74
2022/11/30 00:56:48;;;;;;;19.08;15.30;;;4.10;99.90;;;;;;4978437;28;20225;-74
2022/11/30 00:59:13;;;;;;;20.30;15.73;;;4.20;99.90;;;;;;4988360;28;20188;-75
2022/11/30 01:01:39;;;;;;;21.13;15.52;;;4.20;99.90;;;;;;4987475;28;21560;-74
2022/11/30 01:04:05;;;;;;;19.20;14.35;;;4.10;99.90;;;;;;4989232;28;20293;-75
2022/11/30 01:06:30;;;;;;;21.60;15.77;;;4.20;99.90;;;;;;4990083;28;20207;-75
2022/11/30 01:08:57;;;;;;;19.25;14.48;;;4.30;99.90;;;;;;4989592;28;20550;-74
2022/11/30 01:11:25;;;;;;;18.50;15.05;;;4.30;99.90;;;;;;4990733;28;20273;-75
2022/11/30 01:13:51;;;;;;;18.17;14.05;;;4.40;99.90;;;;;;4989574;28;20284;-74
2022/11/30 01:16:20;;;;;;;18.85;15.45;;;4.40;99.90;;;;;;4989638;28;20655;-74
2022/11/30 01:18:46;;;;;;;23.33;16.20;;;4.40;99.90;;;;;;4989152;28;20240;-73
2022/11/30 01:21:15;;;;;;;18.10;14.07;;;4.40;99.90;;;;;;4989455;28;20186;-75
2022/11/30 01:23:41;;;;;;;19.00;14.35;;;4.30;99.90;;;;;;4999587;28;20209;-74
2022/11/30 01:26:07;;;;;;;16.13;13.68;;;4.40;99.90;;;;;;5001650;28;20597;-74
2022/11/30 01:28:33;;;;;;;18.40;15.05;;;4.50;99.90;;;;;;4993399;28;20281;-73
2022/11/30 01:31:05;;;;;;;19.25;15.25;;;4.50;99.90;;;;;;4991852;28;20182;-74
2022/11/30 01:33:31;;;;;;;20.70;15.48;;;4.50;99.90;;;;;;4989688;28;20278;-74
2022/11/30 01:36:18;;;;;;;21.73;15.00;;;4.50;99.90;;;;;;4992470;28;20248;-74
2022/11/30 01:38:49;;;;;;;21.55;15.70;;;4.50;99.90;;;;;;4999924;28;20239;-74
2022/11/30 01:41:26;;;;;;;20.30;14.68;;;4.50;99.90;;;;;;5004103;28;20273;-73
2022/11/30 01:43:54;;;;;;;21.35;15.98;;;4.50;99.90;;;;;;4983917;28;20255;-74
2022/11/30 01:46:37;;;;;;;22.75;16.05;;;4.50;99.90;;;;;;4992852;28;20700;-74
2022/11/30 01:49:09;;;;;;;22.35;17.05;;;4.60;99.90;;;;;;4991736;28;20193;-74
2022/11/30 01:51:59;;;;;;;22.80;16.25;;;4.70;99.90;;;;;;4986476;28;20546;-73
2022/11/30 01:54:54;;;;;;;22.25;16.90;;;4.70;99.90;;;;;;4983464;28;20198;-74
2022/11/30 01:57:30;;;;;;;23.38;16.92;;;4.70;99.90;;;;;;4995655;28;20250;-75
2022/11/30 01:59:58;;;;;;;21.75;15.77;;;4.60;99.90;;;;;;4998463;28;20178;-75
2022/11/30 02:02:51;;;;;;;21.25;16.33;;;4.60;99.90;;;;;;4992409;28;20197;-75
2022/11/30 02:05:17;;;;;;;21.55;16.48;;;4.60;99.90;;;;;;4991698;28;20204;-75
2022/11/30 02:07:44;;;;;;;23.55;17.13;;;4.60;99.90;;;;;;4991224;28;20170;-74
2022/11/30 02:10:14;;;;;;;22.38;16.20;;;4.70;99.90;;;;;;4999046;28;20252;-74
2022/11/30 02:13:08;;;;;;;24.35;18.13;;;4.70;99.90;;;;;;4990920;28;20184;-72
2022/11/30 02:16:02;;;;;;;23.58;16.42;;;4.60;99.90;;;;;;5001865;28;20336;-73
2022/11/30 02:18:43;;;;;;;24.63;17.08;;;4.60;99.90;;;;;;4985126;28;20223;-74
2022/11/30 02:21:36;;;;;;;25.52;16.55;;;4.60;99.90;;;;;;4992281;28;20180;-73
2022/11/30 02:24:24;;;;;;;23.98;17.30;;;4.60;99.90;;;;;;4985736;28;20696;-73
2022/11/30 02:27:28;;;;;;;26.30;18.50;;;4.70;99.90;;;;;;4985054;28;20197;-75
2022/11/30 02:30:02;;;;;;;23.98;17.70;;;4.60;99.90;;;;;;4990311;28;20182;-75
2022/11/30 02:32:53;;;;;;;22.63;16.15;;;4.60;99.90;;;;;;4999398;28;20185;-75
2022/11/30 02:35:22;;;;;;;24.27;17.70;;;4.70;99.90;;;;;;4988952;28;20220;-73
2022/11/30 02:37:50;;;;;;;23.70;17.90;;;4.70;99.90;;;;;;4992130;28;20652;-75
2022/11/30 02:40:18;;;;;;;27.42;18.10;;;4.60;99.90;;;;;;4991028;28;20182;-75
2022/11/30 02:42:44;;;;;;;27.30;18.15;;;4.50;99.90;;;;;;4983836;28;20210;-74
2022/11/30 02:45:10;;;;;;;27.27;18.58;;;4.40;99.90;;;;;;4991652;28;20198;-74
2022/11/30 02:47:51;;;;;;;27.13;18.13;;;4.40;99.90;;;;;;4993456;28;20570;-75
2022/11/30 02:50:32;;;;;;;25.45;18.10;;;4.40;99.90;;;;;;4990707;28;20710;-74
2022/11/30 02:52:58;;;;;;;23.05;17.17;;;4.30;99.90;;;;;;4987982;28;20629;-75
2022/11/30 02:55:23;;;;;;;25.63;18.08;;;4.40;99.90;;;;;;4991833;28;20267;-74
2022/11/30 02:57:49;;;;;;;25.35;17.27;;;4.40;99.90;;;;;;4990541;28;20657;-73
2022/11/30 03:00:15;;;;;;;23.83;17.42;;;4.50;99.90;;;;;;4988804;28;20213;-73
2022/11/30 03:02:41;;;;;;;25.55;18.02;;;4.40;99.90;;;;;;4992859;28;20719;-73
2022/11/30 03:05:08;;;;;;;24.38;17.92;;;4.40;99.90;;;;;;5001433;28;20266;-74
2022/11/30 03:07:34;;;;;;;24.02;17.08;;;4.40;99.90;;;;;;5001406;28;20258;-74
2022/11/30 03:10:00;;;;;;;24.77;17.83;;;4.40;99.90;;;;;;4995771;28;20265;-73
2022/11/30 03:12:25;;;;;;;25.52;18.23;;;4.40;99.90;;;;;;4993837;28;20228;-74
2022/11/30 03:14:51;;;;;;;25.58;17.83;;;4.40;99.90;;;;;;5000610;28;20186;-75
2022/11/30 03:17:17;;;;;;;26.42;18.55;;;4.40;99.90;;;;;;4993745;28;20193;-73
2022/11/30 03:19:43;;;;;;;25.77;17.58;;;4.50;99.90;;;;;;4995749;28;20178;-74
2022/11/30 03:22:09;;;;;;;28.77;19.10;;;4.60;99.90;;;;;;4990861;28;20646;-74
2022/11/30 03:24:34;;;;;;;27.33;18.90;;;4.50;99.90;;;;;;4993421;28;20188;-74
2022/11/30 03:27:00;;;;;;;28.35;18.67;;;4.50;99.90;;;;;;4995136;28;20252;-74
2022/11/30 03:29:26;;;;;;;25.88;18.13;;;4.50;99.90;;;;;;4994328;28;20212;-74
2022/11/30 03:31:51;;;;;;;26.27;17.52;;;4.40;99.90;;;;;;4990595;28;20193;-75
2022/11/30 03:34:17;;;;;;;23.55;16.48;;;4.30;99.90;;;;;;4984244;28;20193;-74
2022/11/30 03:36:43;;;;;;;26.73;17.45;;;4.40;99.90;;;;;;4988878;28;20217;-74
2022/11/30 03:39:08;;;;;;;28.10;18.30;;;4.40;99.90;;;;;;4992010;28;20573;-73
2022/11/30 03:41:34;;;;;;;23.63;16.75;;;4.30;99.90;;;;;;4992852;28;20252;-74
2022/11/30 03:44:00;;;;;;;25.95;17.33;;;4.30;99.90;;;;;;4992943;28;20206;-74
2022/11/30 03:46:26;;;;;;;27.80;18.15;;;4.40;99.90;;;;;;4991621;28;20208;-74
2022/11/30 03:48:52;;;;;;;24.17;17.02;;;4.30;99.90;;;;;;4994117;28;20193;-74
2022/11/30 03:51:18;;;;;;;24.95;17.20;;;4.20;99.90;;;;;;4994124;28;20375;-74
2022/11/30 03:53:43;;;;;;;26.75;17.50;;;4.10;99.90;;;;;;4989638;28;20268;-74
2022/11/30 03:56:10;;;;;;;29.02;19.40;;;4.20;99.90;;;;;;4988344;28;20206;-74
2022/11/30 03:58:36;;;;;;;27.35;17.95;;;4.10;99.90;;;;;;4989892;28;20784;-74
2022/11/30 04:01:03;;;;;;;30.58;17.65;;;4.10;99.90;;;;;;4992033;28;20464;-74
2022/11/30 04:03:29;;;;;;;29.85;18.98;;;4.20;99.90;;;;;;4992049;28;20198;-74
2022/11/30 04:05:55;;;;;;;25.85;17.67;;;4.20;99.90;;;;;;4985415;28;20268;-74
2022/11/30 04:08:21;;;;;;;30.63;18.92;;;4.30;99.90;;;;;;4990544;28;20201;-73
2022/11/30 04:10:49;;;;;;;27.50;19.35;;;4.30;99.90;;;;;;4993202;28;20260;-74
2022/11/30 04:13:15;;;;;;;26.35;17.00;;;4.20;99.90;;;;;;4984913;28;20213;-74
2022/11/30 04:15:40;;;;;;;27.40;18.83;;;4.20;99.90;;;;;;4987893;28;20291;-74
2022/11/30 04:18:06;;;;;;;28.58;18.67;;;4.30;99.90;;;;;;4988911;28;21189;-74
2022/11/30 04:20:32;;;;;;;24.50;17.25;;;4.30;99.90;;;;;;4989062;28;20277;-74
2022/11/30 04:22:57;;;;;;;27.27;18.27;;;4.30;99.90;;;;;;4983354;28;20205;-75
2022/11/30 04:25:23;;;;;;;28.92;18.25;;;4.30;99.90;;;;;;4991194;28;20287;-74
2022/11/30 04:27:49;;;;;;;30.67;20.02;;;4.30;99.90;;;;;;4976995;28;20174;-74
2022/11/30 04:30:15;;;;;;;27.35;18.60;;;4.30;99.90;;;;;;4989274;28;20834;-73
2022/11/30 04:32:42;;;;;;;27.45;18.52;;;4.20;99.90;;;;;;4992707;28;20173;-74
2022/11/30 04:35:08;;;;;;;26.75;18.70;;;4.20;99.90;;;;;;4989490;28;20634;-74
2022/11/30 04:37:34;;;;;;;28.85;18.92;;;4.20;99.90;;;;;;4989101;28;20195;-74
2022/11/30 04:39:59;;;;;;;27.40;17.88;;;4.10;99.90;;;;;;4992039;28;20256;-75
2022/11/30 04:42:25;;;;;;;27.65;18.23;;;4.10;99.90;;;;;;4988278;28;20218;-75
2022/11/30 04:44:50;;;;;;;27.80;18.50;;;4.20;99.90;;;;;;4990440;28;20186;-75
2022/11/30 04:47:16;;;;;;;27.90;18.05;;;4.20;99.90;;;;;;4992095;28;20173;-75
2022/11/30 04:49:42;;;;;;;27.40;19.15;;;4.20;99.90;;;;;;4988492;28;20174;-74
2022/11/30 04:52:07;;;;;;;29.13;18.45;;;4.10;99.90;;;;;;4986867;28;20189;-74
2022/11/30 04:54:33;;;;;;;30.85;18.70;;;4.20;99.90;;;;;;4985638;28;20171;-75
2022/11/30 04:56:58;;;;;;;28.13;18.98;;;4.10;99.90;;;;;;4976980;28;20202;-73
2022/11/30 04:59:24;;;;;;;26.10;18.83;;;4.10;99.90;;;;;;4987386;28;20190;-74
2022/11/30 05:01:50;;;;;;;26.00;18.40;;;4.10;99.90;;;;;;4990523;28;20652;-74
2022/11/30 05:04:15;;;;;;;25.42;18.67;;;4.10;99.90;;;;;;4980072;28;20264;-74
2022/11/30 05:06:41;;;;;;;28.05;18.55;;;4.10;99.90;;;;;;4981993;28;20578;-73
2022/11/30 05:09:06;;;;;;;28.08;18.08;;;4.10;99.90;;;;;;4984757;28;20174;-75
2022/11/30 05:11:32;;;;;;;28.73;19.02;;;4.10;99.90;;;;;;4986190;28;20174;-75
2022/11/30 05:13:57;;;;;;;28.13;19.48;;;4.00;99.90;;;;;;4985694;28;20194;-75
2022/11/30 05:16:23;;;;;;;27.10;19.02;;;4.00;99.90;;;;;;4985083;28;20244;-74
2022/11/30 05:18:49;;;;;;;29.58;18.77;;;3.90;99.90;;;;;;4986820;28;20221;-73
2022/11/30 05:21:15;;;;;;;26.35;18.92;;;3.90;99.90;;;;;;4985703;28;20181;-73
2022/11/30 05:23:41;;;;;;;27.80;18.85;;;3.90;99.90;;;;;;4991975;28;20213;-73
2022/11/30 05:26:06;;;;;;;28.45;19.08;;;4.00;99.90;;;;;;4989942;28;20202;-75
2022/11/30 05:28:32;;;;;;;28.27;18.27;;;4.00;99.90;;;;;;4992633;28;20185;-75
2022/11/30 05:31:02;;;;;;;27.85;19.13;;;4.10;99.90;;;;;;4993204;28;20687;-74
2022/11/30 05:33:28;;;;;;;28.48;19.27;;;4.10;99.90;;;;;;4989644;28;20185;-74
2022/11/30 05:35:54;;;;;;;27.25;18.20;;;4.10;99.90;;;;;;4989079;28;20217;-74
2022/11/30 05:38:19;;;;;;;29.48;19.50;;;4.10;99.90;;;;;;4993345;28;20178;-72
2022/11/30 05:40:45;;;;;;;25.65;18.30;;;4.10;99.90;;;;;;4995596;28;20236;-74
2022/11/30 05:43:11;;;;;;;30.48;18.92;;;4.10;99.90;;;;;;4986162;28;20210;-74
2022/11/30 05:45:37;;;;;;;30.25;19.27;;;4.00;99.90;;;;;;4988205;28;20209;-74
2022/11/30 05:48:03;;;;;;;32.47;20.20;;;3.90;99.90;;;;;;4991468;28;20185;-74
2022/11/30 05:50:28;;;;;;;27.42;18.00;;;3.90;99.90;;;;;;4988278;28;20186;-73
2022/11/30 05:52:55;;;;;;;31.13;20.38;;;4.00;99.90;;;;;;4986901;28;20229;-73
2022/11/30 05:55:22;;;;;;;29.50;19.48;;;4.00;99.90;;;;;;4991061;28;20217;-74
2022/11/30 05:57:47;;;;;;;25.92;18.15;;;4.00;99.90;;;;;;4990317;28;20178;-73
2022/11/30 06:00:14;;;;;;;27.45;16.80;;;4.00;99.90;;;;;;4991097;28;20603;-74
2022/11/30 06:02:39;;;;;;;29.55;18.85;;;4.00;99.90;;;;;;4990189;28;20739;-75
2022/11/30 06:05:05;;;;;;;28.05;18.27;;;4.00;99.90;;;;;;4989096;28;20186;-74
2022/11/30 06:07:31;;;;;;;30.75;18.85;;;4.10;99.90;;;;;;4988634;28;20166;-74
2022/11/30 06:09:57;;;;;;;32.15;19.90;;;4.10;99.90;;;;;;4988340;28;20663;-74
2022/11/30 06:12:22;;;;;;;34.88;19.67;;;4.20;99.90;;;;;;4992639;28;20645;-74
2022/11/30 06:14:49;;;;;;;30.55;19.17;;;4.20;99.90;;;;;;4989449;28;20640;-74
2022/11/30 06:17:16;;;;;;;37.53;20.02;;;4.30;99.90;;;;;;4986742;28;20189;-75
2022/11/30 06:19:41;;;;;;;31.67;19.67;;;4.40;99.90;;;;;;4988638;28;20177;-74
2022/11/30 06:22:07;;;;;;;36.15;21.95;;;4.40;99.90;;;;;;4986780;28;20641;-76
2022/11/30 06:24:32;;;;;;;38.92;22.23;;;4.40;99.90;;;;;;4988238;28;20193;-76
2022/11/30 06:26:58;;;;;;;36.80;21.67;;;4.40;99.90;;;;;;4984834;28;20292;-76
2022/11/30 06:29:24;;;;;;;33.38;20.13;;;4.40;99.90;;;;;;4985741;28;20670;-75
2022/11/30 06:31:49;;;;;;;33.03;20.25;;;4.30;99.90;;;;;;4986240;28;20225;-76
2022/11/30 06:34:15;;;;;;;32.50;20.08;;;4.30;99.90;;;;;;4989258;28;20280;-76
2022/11/30 06:36:40;;;;;;;35.65;22.58;;;4.20;99.90;;;;;;4991288;28;20695;-75
2022/11/30 06:39:08;;;;;;;29.65;19.40;;;4.20;99.90;;;;;;4991010;28;20194;-76
2022/11/30 06:41:33;;;;;;;34.88;21.77;;;4.20;99.90;;;;;;4990145;28;20238;-77
2022/11/30 06:43:59;;;;;;;33.78;21.48;;;4.10;99.90;;;;;;4988189;28;20205;-77
2022/11/30 06:46:25;;;;;;;35.55;21.90;;;4.00;99.90;;;;;;4989871;28;20236;-77
2022/11/30 06:48:51;;;;;;;31.90;20.85;;;3.90;99.90;;;;;;4985988;28;20239;-77
2022/11/30 06:51:17;;;;;;;35.85;23.15;;;3.90;99.90;;;;;;4991007;28;20704;-77
2022/11/30 06:53:44;;;;;;;38.05;22.40;;;3.90;99.90;;;;;;4991490;28;20217;-77
2022/11/30 06:56:10;;;;;;;33.47;21.15;;;3.90;99.90;;;;;;4990269;28;20248;-77
2022/11/30 06:58:37;;;;;;;36.15;21.08;;;3.90;99.90;;;;;;4987532;28;20452;-76
2022/11/30 07:01:11;;;;;;;42.38;22.58;;;3.80;99.90;;;;;;4995786;28;20285;-77
2022/11/30 07:03:38;;;;;;;33.00;21.27;;;3.80;99.90;;;;;;4992153;28;20200;-77
2022/11/30 07:06:09;;;;;;;33.50;21.35;;;3.90;99.90;;;;;;4995877;28;20675;-77
2022/11/30 07:08:36;;;;;;;33.83;21.08;;;3.90;99.90;;;;;;4994949;28;20212;-77
2022/11/30 07:11:02;;;;;;;33.70;21.10;;;3.90;99.90;;;;;;4986878;28;20174;-77
2022/11/30 07:13:28;;;;;;;33.08;20.77;;;4.00;99.90;;;;;;4999195;28;20189;-77
2022/11/30 07:15:54;;;;;;;35.60;22.73;;;4.00;99.90;;;;;;4995855;28;20201;-77
2022/11/30 07:18:20;;;;;;;32.83;20.73;;;4.10;99.90;;;;;;4983049;28;20194;-76
2022/11/30 07:20:45;;;;;;;33.47;22.05;;;4.00;99.90;;;;;;4991744;28;20260;-75
2022/11/30 07:26:06;;;;;;;36.05;23.08;;;4.00;99.90;;;;;;4988419;28;20715;-75
2022/11/30 07:28:34;;;;;;;33.70;20.02;;;4.10;99.90;;;;;;4989637;28;20171;-76
2022/11/30 07:31:01;;;;;;;35.90;21.45;;;4.10;99.90;;;;;;4987510;28;20166;-76
2022/11/30 07:33:26;;;;;;;30.25;19.30;;;4.10;99.90;;;;;;4990109;28;20182;-76
2022/11/30 07:35:53;;;;;;;35.42;22.10;;;4.10;99.90;;;;;;4998070;28;20571;-76
2022/11/30 07:38:19;;;;;;;32.17;20.55;;;4.10;99.90;;;;;;4994756;28;20609;-76
2022/11/30 07:40:45;;;;;;;32.15;21.35;;;4.10;99.90;;;;;;4993571;28;20177;-76
2022/11/30 07:43:10;;;;;;;37.35;22.58;;;4.10;99.90;;;;;;5009454;28;20680;-77
2022/11/30 07:45:36;;;;;;;32.80;21.60;;;4.10;99.90;;;;;;5000436;28;20288;-76
2022/11/30 07:48:01;;;;;;;33.05;20.58;;;4.20;99.90;;;;;;4994944;28;20182;-76
2022/11/30 07:50:27;;;;;;;33.72;21.33;;;4.20;99.90;;;;;;4993750;28;20197;-76
2022/11/30 07:52:52;;;;;;;37.85;23.50;;;4.20;99.90;;;;;;4983522;28;20193;-76
2022/11/30 07:55:22;;;;;;;35.40;22.33;;;4.10;99.90;;;;;;4993160;28;20291;-77
2022/11/30 07:57:47;;;;;;;36.15;22.15;;;4.10;99.90;;;;;;4992647;28;20247;-76
2022/11/30 08:00:14;;;;;;;30.77;20.92;;;4.10;99.90;;;;;;4994945;28;20660;-75
2022/11/30 08:02:39;;;;;;;33.60;21.98;;;4.10;99.90;;;;;;5001603;28;20697;-75
2022/11/30 08:05:05;;;;;;;39.15;23.15;;;4.20;99.90;;;;;;5002210;28;20181;-77
2022/11/30 08:07:31;;;;;;;34.20;22.67;;;4.10;99.90;;;;;;5006793;28;20169;-75
2022/11/30 08:09:56;;;;;;;38.40;23.38;;;4.10;99.90;;;;;;4989367;28;20667;-72
2022/11/30 08:12:22;;;;;;;38.60;23.08;;;4.00;99.90;;;;;;5002075;28;20184;-75
2022/11/30 08:14:48;;;;;;;34.03;21.58;;;4.00;99.90;;;;;;4993745;28;20198;-73
2022/11/30 08:17:13;;;;;;;39.55;22.65;;;4.00;99.90;;;;;;4990792;28;20240;-74
2022/11/30 08:19:39;;;;;;;41.00;23.42;;;4.10;99.90;;;;;;4999175;28;20177;-72
2022/11/30 08:22:04;;;;;;;34.53;21.90;;;4.10;99.90;;;;;;4999565;28;20189;-73
2022/11/30 08:24:30;;;;;;;33.55;22.55;;;4.20;99.90;;;;;;4997255;28;20209;-72
2022/11/30 08:26:55;;;;;;;34.33;21.80;;;4.20;99.90;;;;;;4991486;28;20280;-72
2022/11/30 08:29:21;;;;;;;33.58;22.52;;;4.10;99.90;;;;;;4996126;28;20206;-73
2022/11/30 08:31:46;;;;;;;33.60;19.88;;;4.10;99.90;;;;;;4994605;28;20166;-74
2022/11/30 08:34:12;;;;;;;37.00;21.70;;;4.20;99.90;;;;;;4994217;28;20196;-73
2022/11/30 08:36:39;;;;;;;35.25;21.02;;;4.30;99.90;;;;;;4991118;28;20202;-73
2022/11/30 08:39:06;;;;;;;33.22;21.30;;;4.20;99.90;;;;;;4989799;28;20214;-74
2022/11/30 08:41:33;;;;;;;32.53;21.63;;;4.20;99.90;;;;;;4987369;28;20645;-73
2022/11/30 08:44:00;;;;;;;35.55;22.70;;;4.20;99.90;;;;;;4990079;28;20293;-73
2022/11/30 08:46:25;;;;;;;40.35;25.20;;;4.20;99.90;;;;;;4992768;28;20216;-73
2022/11/30 08:48:51;;;;;;;39.47;24.25;;;4.30;99.90;;;;;;4995097;28;20158;-73
2022/11/30 08:51:18;;;;;;;32.92;21.40;;;4.10;99.90;;;;;;4990628;28;20660;-73
2022/11/30 08:53:45;;;;;;;33.90;22.30;;;4.20;99.90;;;;;;4997651;28;20186;-75
2022/11/30 08:56:17;;;;;;;40.10;24.38;;;4.20;99.90;;;;;;4995466;28;20296;-74
2022/11/30 08:58:43;;;;;;;39.60;23.15;;;4.20;99.90;;;;;;4992836;28;20182;-75
2022/11/30 09:01:12;;;;;;;33.08;22.73;;;4.10;99.90;;;;;;5000917;28;20191;-74
2022/11/30 09:03:38;;;;;;;33.65;22.45;;;4.20;99.90;;;;;;4993301;28;20279;-74
2022/11/30 09:06:14;;;;;;;38.33;22.80;;;4.30;99.90;;;;;;4986299;28;20676;-74
2022/11/30 09:08:41;;;;;;;38.60;23.20;;;4.40;99.90;;;;;;4991500;28;20197;-73
2022/11/30 09:11:21;;;;;;;35.08;22.73;;;4.30;99.90;;;;;;4991006;28;20189;-75
2022/11/30 09:13:48;;;;;;;34.95;22.52;;;4.20;99.90;;;;;;4985814;28;20185;-75
2022/11/30 09:16:16;;;;;;;34.90;21.73;;;4.30;99.90;;;;;;5003448;28;20245;-75
2022/11/30 09:18:42;;;;;;;35.47;22.70;;;4.30;99.90;;;;;;4993689;28;20179;-74
2022/11/30 09:21:11;;;;;;;33.13;21.50;;;4.30;99.90;;;;;;4997104;28;20268;-75
2022/11/30 09:23:37;;;;;;;33.88;20.98;;;4.40;99.90;;;;;;4993781;28;20245;-75
2022/11/30 09:26:06;;;;;;;32.60;22.17;;;4.30;99.90;;;;;;4992679;28;20202;-75
2022/11/30 09:28:32;;;;;;;39.15;23.95;;;4.30;99.90;;;;;;4992927;28;20275;-75
2022/11/30 09:31:06;;;;;;;34.42;21.77;;;4.40;99.90;;;;;;4991882;28;20629;-75
2022/11/30 09:33:32;;;;;;;34.13;21.77;;;4.40;99.90;;;;;;4992158;28;20237;-74
2022/11/30 09:36:03;;;;;;;33.90;22.10;;;4.50;99.90;;;;;;4993617;28;20208;-74
2022/11/30 09:38:29;;;;;;;34.22;22.33;;;4.50;99.90;;;;;;4994159;28;20182;-75
2022/11/30 09:40:57;;;;;;;40.28;23.65;;;4.50;99.90;;;;;;4992863;28;20178;-72
2022/11/30 09:43:43;;;;;;;45.55;22.73;;;4.40;99.90;;;;;;4986481;28;20210;-74
2022/11/30 09:46:09;;;;;;;35.58;22.50;;;4.40;99.90;;;;;;4993794;28;20198;-75
2022/11/30 09:49:03;;;;;;;40.22;23.85;;;4.50;99.90;;;;;;4996459;28;20175;-74
2022/11/30 09:51:44;;;;;;;37.60;22.73;;;4.40;99.90;;;;;;4994208;28;20179;-72
2022/11/30 09:54:18;;;;;;;34.42;22.38;;;4.20;99.90;;;;;;4991981;28;20252;-74
2022/11/30 09:56:45;;;;;;;34.72;22.15;;;4.30;99.90;;;;;;4983531;28;20201;-75
2022/11/30 09:59:19;;;;;;;36.05;23.60;;;4.30;99.90;;;;;;4998522;28;20189;-75
2022/11/30 10:01:47;;;;;;;33.80;20.60;;;4.30;99.90;;;;;;4991774;28;20190;-73
2022/11/30 10:04:29;;;;;;;39.70;22.35;;;4.30;99.90;;;;;;4995197;28;20225;-73
2022/11/30 10:07:32;;;;;;;36.53;23.25;;;4.40;99.90;;;;;;4988467;28;20256;-73
2022/11/30 10:10:30;;;;;;;31.40;21.30;;;4.50;99.90;;;;;;4996097;28;20257;-73
2022/11/30 10:13:17;;;;;;;34.00;22.15;;;4.60;99.90;;;;;;4986064;28;20977;-73
2022/11/30 10:16:22;;;;;;;33.97;21.70;;;4.70;99.90;;;;;;4988100;28;20680;-74
2022/11/30 10:18:50;;;;;;;35.83;23.25;;;4.70;99.90;;;;;;4989081;28;20768;-73
2022/11/30 10:21:54;;;;;;;35.50;22.98;;;4.70;99.90;;;;;;4987867;28;20213;-73
2022/11/30 10:24:48;;;;;;;39.25;23.60;;;4.80;99.90;;;;;;4996803;28;20256;-73
2022/11/30 10:27:56;;;;;;;35.05;22.75;;;4.90;99.90;;;;;;5002560;28;20189;-74
2022/11/30 10:30:24;;;;;;;30.73;21.85;;;4.90;99.90;;;;;;4970082;28;20190;-73
2022/11/30 10:32:57;;;;;;;33.38;22.92;;;4.90;99.90;;;;;;4970265;28;20178;-73
2022/11/30 10:35:33;;;;;;;32.13;21.90;;;4.90;99.90;;;;;;4982064;28;20296;-73
2022/11/30 10:38:10;;;;;;;33.60;21.92;;;4.80;99.90;;;;;;4994622;28;20174;-73
2022/11/30 10:40:52;;;;;;;35.50;23.20;;;4.90;99.90;;;;;;4992307;28;20182;-76
2022/11/30 10:43:42;;;;;;;30.67;21.25;;;4.90;99.90;;;;;;4996931;28;20209;-76
2022/11/30 10:46:17;;;;;;;31.55;20.13;;;4.90;99.90;;;;;;4987560;28;20276;-75
2022/11/30 10:48:54;;;;;;;33.60;22.23;;;5.00;99.90;;;;;;4997937;28;20205;-74
2022/11/30 10:51:20;;;;;;;32.38;22.08;;;4.90;99.90;;;;;;4992445;28;20177;-73
2022/11/30 10:53:46;;;;;;;34.10;22.08;;;5.00;99.90;;;;;;4992064;28;20189;-73
2022/11/30 10:56:13;;;;;;;33.65;21.05;;;5.10;99.90;;;;;;4988113;28;20588;-74
2022/11/30 10:58:54;;;;;;;39.67;23.55;;;5.20;99.90;;;;;;4990494;28;20672;-77
2022/11/30 11:01:36;;;;;;;29.70;22.10;;;5.20;99.90;;;;;;4991857;28;20200;-77
2022/11/30 11:04:23;;;;;;;32.67;19.67;;;5.20;99.90;;;;;;4991377;28;20198;-76
2022/11/30 11:06:54;;;;;;;31.40;20.65;;;5.30;99.90;;;;;;4990267;28;20716;-77
2022/11/30 11:09:38;;;;;;;29.85;19.83;;;5.40;99.90;;;;;;4990067;28;20280;-77
2022/11/30 11:12:14;;;;;;;32.42;20.85;;;5.30;99.90;;;;;;4995002;28;20170;-77
2022/11/30 11:14:39;;;;;;;30.65;20.48;;;5.40;99.90;;;;;;4993340;28;20181;-76
2022/11/30 11:17:25;;;;;;;27.15;19.00;;;5.40;99.90;;;;;;4990100;28;20202;-76
2022/11/30 11:19:51;;;;;;;30.10;18.10;;;5.40;99.90;;;;;;4994482;28;20189;-77
2022/11/30 11:22:23;;;;;;;28.83;18.95;;;5.20;99.90;;;;;;4994695;28;20185;-77
2022/11/30 11:24:52;;;;;;;30.90;20.33;;;5.10;99.90;;;;;;4994151;28;20720;-76
2022/11/30 11:27:32;;;;;;;27.73;18.27;;;5.00;99.90;;;;;;4982994;28;20799;-77
2022/11/30 11:30:03;;;;;;;25.55;18.38;;;5.10;99.90;;;;;;5004274;28;20259;-77
2022/11/30 11:32:29;;;;;;;28.50;19.98;;;5.20;99.90;;;;;;4995291;28;20185;-77
2022/11/30 11:34:56;;;;;;;29.42;19.08;;;5.30;99.90;;;;;;4997780;28;20170;-77
2022/11/30 11:37:27;;;;;;;27.85;17.88;;;5.50;99.90;;;;;;4998652;28;20236;-77
2022/11/30 11:40:04;;;;;;;25.63;17.92;;;5.60;99.90;;;;;;4983835;28;20184;-77
2022/11/30 11:42:39;;;;;;;24.52;17.65;;;5.60;99.90;;;;;;4986144;28;20201;-76
2022/11/30 11:45:24;;;;;;;28.10;18.00;;;5.70;99.90;;;;;;4991552;28;20248;-76
2022/11/30 11:48:42;;;;;;;27.25;18.50;;;5.80;99.90;;;;;;4994341;28;20240;-77
2022/11/30 11:51:10;;;;;;;24.30;17.10;;;5.60;99.90;;;;;;4948209;28;20545;-77
2022/11/30 11:53:43;;;;;;;25.30;17.73;;;5.60;99.90;;;;;;4992248;28;20739;-76
2022/11/30 11:56:16;;;;;;;28.33;19.17;;;5.50;99.90;;;;;;4993934;28;20276;-77
2022/11/30 11:59:00;;;;;;;23.63;17.45;;;5.60;99.90;;;;;;4983910;28;20189;-77
2022/11/30 12:01:50;;;;;;;27.48;17.95;;;5.70;99.90;;;;;;4996936;28;20184;-76
2022/11/30 12:04:21;;;;;;;23.55;17.58;;;5.70;99.90;;;;;;4997152;28;20202;-76
2022/11/30 12:06:52;;;;;;;23.45;16.63;;;5.70;99.90;;;;;;4987846;28;20193;-76
2022/11/30 12:09:26;;;;;;;24.98;17.33;;;5.60;99.90;;;;;;4992803;28;20556;-77
2022/11/30 12:11:51;;;;;;;22.70;16.23;;;5.50;99.90;;;;;;5002695;28;20253;-77
2022/11/30 12:14:18;;;;;;;28.02;17.85;;;5.60;99.90;;;;;;4997131;28;20333;-77
2022/11/30 12:16:55;;;;;;;26.10;16.27;;;5.50;99.90;;;;;;5002294;28;20595;-77
2022/11/30 12:19:31;;;;;;;22.83;15.95;;;5.50;99.90;;;;;;4998810;28;20212;-77
2022/11/30 12:22:24;;;;;;;22.20;16.15;;;5.50;99.90;;;;;;4992508;28;20174;-77
2022/11/30 12:25:12;;;;;;;25.35;17.30;;;5.50;99.90;;;;;;4986644;28;20178;-77
2022/11/30 12:27:49;;;;;;;22.02;14.90;;;5.60;99.90;;;;;;4993998;28;20178;-76
2022/11/30 12:30:23;;;;;;;20.10;14.82;;;5.60;99.90;;;;;;4997015;28;20185;-78
2022/11/30 12:33:09;;;;;;;22.88;16.13;;;5.60;99.90;;;;;;4987484;28;20177;-78
2022/11/30 12:35:45;;;;;;;26.30;17.13;;;5.60;99.90;;;;;;4997887;28;20248;-77
2022/11/30 12:38:33;;;;;;;23.00;16.27;;;5.60;99.90;;;;;;4997327;28;20268;-77
2022/11/30 12:41:08;;;;;;;20.77;15.65;;;5.50;99.90;;;;;;4988664;28;20186;-75
2022/11/30 12:43:59;;;;;;;19.60;14.75;;;5.60;99.90;;;;;;4987604;28;20573;-74
2022/11/30 12:46:28;;;;;;;21.58;15.88;;;5.50;99.90;;;;;;5002192;28;20286;-75
2022/11/30 12:49:38;;;;;;;20.27;14.77;;;5.40;99.90;;;;;;4986626;28;20170;-76
2022/11/30 12:52:22;;;;;;;19.60;15.15;;;5.40;99.90;;;;;;4993832;28;20186;-76
2022/11/30 12:55:22;;;;;;;24.40;15.80;;;5.40;99.90;;;;;;4993794;28;20177;-76